sensor_id;sensor_type;location;lat;lon;timestamp;temperature;humidity
3876;DHT22;1953;51.222;6.624;2023-07-22T00:04:05;16.60;1.00
3876;DHT22;1953;51.222;6.624;2023-07-22T00:08:49;16.50;1.00
3876;DHT22;1953;51.222;6.624;2023-07-22T00:15:24;16.40;1.00
3876;DHT22;1953;51.222;6.624;2023-07-22T00:20:07;16.40;1.00
3876;DHT22;1953;51.222;6.624;2023-07-22T00:24:52;16.40;1.00
3876;DHT22;1953;51.222;6.624;2023-07-22T00:29:34;16.40;1.00
3876;DHT22;1953;51.222;6.624;2023-07-22T00:34:18;16.40;1.00
3876;DHT22;1953;51.222;6.624;2023-07-22T00:39:01;16.50;1.00
3876;DHT22;1953;51.222;6.624;2023-07-22T00:43:43;16.50;1.00
3876;DHT22;1953;51.222;6.624;2023-07-22T00:48:27;16.60;1.00
3876;DHT22;1953;51.222;6.624;2023-07-22T00:53:11;16.70;1.00
3876;DHT22;1953;51.222;6.624;2023-07-22T00:57:54;16.70;1.00
3876;DHT22;1953;51.222;6.624;2023-07-22T01:02:37;16.70;1.00
3876;DHT22;1953;51.222;6.624;2023-07-22T01:07:20;16.60;1.00
3876;DHT22;1953;51.222;6.624;2023-07-22T01:12:04;16.50;1.00
3876;DHT22;1953;51.222;6.624;2023-07-22T01:16:48;16.50;1.00
3876;DHT22;1953;51.222;6.624;2023-07-22T01:21:31;16.40;1.00
3876;DHT22;1953;51.222;6.624;2023-07-22T01:26:16;16.30;1.00
3876;DHT22;1953;51.222;6.624;2023-07-22T01:30:58;16.20;1.00
3876;DHT22;1953;51.222;6.624;2023-07-22T01:35:41;16.10;1.00
3876;DHT22;1953;51.222;6.624;2023-07-22T01:40:25;16.10;1.00
3876;DHT22;1953;51.222;6.624;2023-07-22T01:45:10;16.00;1.00
3876;DHT22;1953;51.222;6.624;2023-07-22T01:49:52;16.00;1.00
3876;DHT22;1953;51.222;6.624;2023-07-22T01:54:35;15.90;1.00
3876;DHT22;1953;51.222;6.624;2023-07-22T01:59:17;16.00;1.00
3876;DHT22;1953;51.222;6.624;2023-07-22T02:04:01;15.90;1.00
3876;DHT22;1953;51.222;6.624;2023-07-22T02:08:44;15.90;1.00
3876;DHT22;1953;51.222;6.624;2023-07-22T02:13:26;15.80;1.00
3876;DHT22;1953;51.222;6.624;2023-07-22T02:18:09;15.70;1.00
3876;DHT22;1953;51.222;6.624;2023-07-22T02:22:53;15.60;1.00
3876;DHT22;1953;51.222;6.624;2023-07-22T02:27:35;14.50;1.00
3876;DHT22;1953;51.222;6.624;2023-07-22T02:32:18;15.00;1.00
3876;DHT22;1953;51.222;6.624;2023-07-22T02:37:01;15.60;1.00
3876;DHT22;1953;51.222;6.624;2023-07-22T02:41:45;15.60;1.00
3876;DHT22;1953;51.222;6.624;2023-07-22T02:46:27;15.60;1.00
3876;DHT22;1953;51.222;6.624;2023-07-22T02:51:10;15.50;1.00
3876;DHT22;1953;51.222;6.624;2023-07-22T02:55:53;15.50;1.00
3876;DHT22;1953;51.222;6.624;2023-07-22T03:00:37;15.40;1.00
3876;DHT22;1953;51.222;6.624;2023-07-22T03:05:20;15.40;1.00
3876;DHT22;1953;51.222;6.624;2023-07-22T03:10:03;15.40;1.00
3876;DHT22;1953;51.222;6.624;2023-07-22T03:14:45;15.30;1.00
3876;DHT22;1953;51.222;6.624;2023-07-22T03:19:29;15.40;1.00
3876;DHT22;1953;51.222;6.624;2023-07-22T03:24:11;15.30;1.00
3876;DHT22;1953;51.222;6.624;2023-07-22T03:28:54;15.20;1.00
3876;DHT22;1953;51.222;6.624;2023-07-22T03:33:37;15.20;1.00
3876;DHT22;1953;51.222;6.624;2023-07-22T03:38:21;15.20;1.00
3876;DHT22;1953;51.222;6.624;2023-07-22T03:43:03;15.20;1.00
3876;DHT22;1953;51.222;6.624;2023-07-22T03:47:47;15.10;1.00
3876;DHT22;1953;51.222;6.624;2023-07-22T03:52:29;15.10;1.00
3876;DHT22;1953;51.222;6.624;2023-07-22T03:57:13;15.10;1.00
3876;DHT22;1953;51.222;6.624;2023-07-22T04:01:56;15.10;1.00
3876;DHT22;1953;51.222;6.624;2023-07-22T04:06:38;15.00;1.00
3876;DHT22;1953;51.222;6.624;2023-07-22T04:11:21;14.90;1.00
3876;DHT22;1953;51.222;6.624;2023-07-22T04:16:05;14.90;1.00
3876;DHT22;1953;51.222;6.624;2023-07-22T04:20:48;15.00;1.00
3876;DHT22;1953;51.222;6.624;2023-07-22T04:25:30;15.00;1.00
3876;DHT22;1953;51.222;6.624;2023-07-22T04:30:13;15.00;1.00
3876;DHT22;1953;51.222;6.624;2023-07-22T04:35:03;15.10;1.00
3876;DHT22;1953;51.222;6.624;2023-07-22T04:39:48;15.20;1.00
3876;DHT22;1953;51.222;6.624;2023-07-22T04:44:31;15.20;1.00
3876;DHT22;1953;51.222;6.624;2023-07-22T04:49:14;15.20;1.00
3876;DHT22;1953;51.222;6.624;2023-07-22T04:54:00;15.20;1.00
3876;DHT22;1953;51.222;6.624;2023-07-22T04:58:42;15.30;1.00
3876;DHT22;1953;51.222;6.624;2023-07-22T05:03:26;15.40;1.00
3876;DHT22;1953;51.222;6.624;2023-07-22T05:08:09;15.40;1.00
3876;DHT22;1953;51.222;6.624;2023-07-22T05:12:53;15.40;1.00
3876;DHT22;1953;51.222;6.624;2023-07-22T05:17:35;15.40;1.00
3876;DHT22;1953;51.222;6.624;2023-07-22T05:22:18;15.40;1.00
3876;DHT22;1953;51.222;6.624;2023-07-22T05:27:00;15.50;1.00
3876;DHT22;1953;51.222;6.624;2023-07-22T05:31:44;15.60;1.00
3876;DHT22;1953;51.222;6.624;2023-07-22T05:36:27;15.60;1.00
3876;DHT22;1953;51.222;6.624;2023-07-22T05:41:10;15.70;1.00
3876;DHT22;1953;51.222;6.624;2023-07-22T05:45:53;15.80;1.00
3876;DHT22;1953;51.222;6.624;2023-07-22T05:50:37;15.90;1.00
3876;DHT22;1953;51.222;6.624;2023-07-22T05:55:19;15.90;1.00
3876;DHT22;1953;51.222;6.624;2023-07-22T06:00:02;16.10;1.00
3876;DHT22;1953;51.222;6.624;2023-07-22T06:04:45;16.20;1.00
3876;DHT22;1953;51.222;6.624;2023-07-22T06:09:28;16.40;1.00
3876;DHT22;1953;51.222;6.624;2023-07-22T06:14:11;16.60;1.00
3876;DHT22;1953;51.222;6.624;2023-07-22T06:18:53;16.80;1.00
3876;DHT22;1953;51.222;6.624;2023-07-22T06:23:36;17.60;1.00
3876;DHT22;1953;51.222;6.624;2023-07-22T06:28:20;17.00;1.00
3876;DHT22;1953;51.222;6.624;2023-07-22T06:33:03;17.20;1.00
3876;DHT22;1953;51.222;6.624;2023-07-22T06:37:45;17.30;1.00
3876;DHT22;1953;51.222;6.624;2023-07-22T06:42:28;17.50;1.00
3876;DHT22;1953;51.222;6.624;2023-07-22T06:47:12;17.60;1.00
3876;DHT22;1953;51.222;6.624;2023-07-22T06:51:54;17.70;1.00
3876;DHT22;1953;51.222;6.624;2023-07-22T06:56:37;17.90;1.00
3876;DHT22;1953;51.222;6.624;2023-07-22T07:01:20;18.10;1.00
3876;DHT22;1953;51.222;6.624;2023-07-22T07:06:04;18.30;1.00
3876;DHT22;1953;51.222;6.624;2023-07-22T07:10:47;18.40;1.00
3876;DHT22;1953;51.222;6.624;2023-07-22T07:15:30;18.60;1.00
3876;DHT22;1953;51.222;6.624;2023-07-22T07:20:14;18.70;1.00
3876;DHT22;1953;51.222;6.624;2023-07-22T07:24:58;18.90;1.00
3876;DHT22;1953;51.222;6.624;2023-07-22T07:29:40;19.00;1.00
3876;DHT22;1953;51.222;6.624;2023-07-22T07:34:23;19.10;1.00
3876;DHT22;1953;51.222;6.624;2023-07-22T07:39:05;19.30;1.00
3876;DHT22;1953;51.222;6.624;2023-07-22T07:43:50;19.40;1.00
3876;DHT22;1953;51.222;6.624;2023-07-22T07:48:32;19.50;1.00
3876;DHT22;1953;51.222;6.624;2023-07-22T07:53:15;19.60;1.00
3876;DHT22;1953;51.222;6.624;2023-07-22T07:57:57;19.70;1.00
3876;DHT22;1953;51.222;6.624;2023-07-22T08:02:41;19.70;1.00
3876;DHT22;1953;51.222;6.624;2023-07-22T08:07:24;19.80;1.00
3876;DHT22;1953;51.222;6.624;2023-07-22T08:12:07;19.80;1.00
3876;DHT22;1953;51.222;6.624;2023-07-22T08:16:50;19.90;1.00
3876;DHT22;1953;51.222;6.624;2023-07-22T08:21:33;20.00;1.00
3876;DHT22;1953;51.222;6.624;2023-07-22T08:26:16;20.10;1.00
3876;DHT22;1953;51.222;6.624;2023-07-22T08:31:02;20.20;1.00
3876;DHT22;1953;51.222;6.624;2023-07-22T08:39:59;20.40;1.00
3876;DHT22;1953;51.222;6.624;2023-07-22T08:44:43;20.60;1.00
3876;DHT22;1953;51.222;6.624;2023-07-22T08:49:27;20.80;1.00
3876;DHT22;1953;51.222;6.624;2023-07-22T08:54:10;20.90;1.00
3876;DHT22;1953;51.222;6.624;2023-07-22T08:58:55;20.80;1.00
3876;DHT22;1953;51.222;6.624;2023-07-22T09:03:39;21.00;1.00
3876;DHT22;1953;51.222;6.624;2023-07-22T09:08:23;21.20;1.00
3876;DHT22;1953;51.222;6.624;2023-07-22T09:13:05;21.30;1.00
3876;DHT22;1953;51.222;6.624;2023-07-22T09:17:50;21.50;1.00
3876;DHT22;1953;51.222;6.624;2023-07-22T09:22:33;23.00;1.00
3876;DHT22;1953;51.222;6.624;2023-07-22T09:27:16;21.80;1.00
3876;DHT22;1953;51.222;6.624;2023-07-22T09:31:58;22.00;1.00
3876;DHT22;1953;51.222;6.624;2023-07-22T09:36:52;22.20;1.00
3876;DHT22;1953;51.222;6.624;2023-07-22T09:41:41;23.00;1.00
3876;DHT22;1953;51.222;6.624;2023-07-22T09:46:31;22.30;1.00
3876;DHT22;1953;51.222;6.624;2023-07-22T09:51:14;22.30;1.00
3876;DHT22;1953;51.222;6.624;2023-07-22T09:56:03;22.90;1.00
3876;DHT22;1953;51.222;6.624;2023-07-22T10:00:48;22.20;1.00
3876;DHT22;1953;51.222;6.624;2023-07-22T10:05:34;22.10;1.00
3876;DHT22;1953;51.222;6.624;2023-07-22T10:10:18;22.10;1.00
3876;DHT22;1953;51.222;6.624;2023-07-22T10:15:02;22.10;1.00
3876;DHT22;1953;51.222;6.624;2023-07-22T10:19:46;22.10;1.00
3876;DHT22;1953;51.222;6.624;2023-07-22T10:24:29;22.10;1.00
3876;DHT22;1953;51.222;6.624;2023-07-22T10:29:11;20.90;1.00
3876;DHT22;1953;51.222;6.624;2023-07-22T10:33:56;22.10;1.00
3876;DHT22;1953;51.222;6.624;2023-07-22T10:38:38;22.30;1.00
3876;DHT22;1953;51.222;6.624;2023-07-22T10:43:24;22.30;1.00
3876;DHT22;1953;51.222;6.624;2023-07-22T10:48:08;22.70;1.00
3876;DHT22;1953;51.222;6.624;2023-07-22T10:52:53;22.50;1.00
3876;DHT22;1953;51.222;6.624;2023-07-22T10:57:47;22.70;1.00
3876;DHT22;1953;51.222;6.624;2023-07-22T11:02:30;23.10;1.00
3876;DHT22;1953;51.222;6.624;2023-07-22T11:07:13;23.40;1.00
3876;DHT22;1953;51.222;6.624;2023-07-22T11:11:58;23.60;1.00
3876;DHT22;1953;51.222;6.624;2023-07-22T11:16:42;23.70;1.00
3876;DHT22;1953;51.222;6.624;2023-07-22T11:21:26;23.80;1.00
3876;DHT22;1953;51.222;6.624;2023-07-22T11:26:08;25.20;1.00
3876;DHT22;1953;51.222;6.624;2023-07-22T11:30:52;24.50;1.00
3876;DHT22;1953;51.222;6.624;2023-07-22T11:35:34;23.90;1.00
3876;DHT22;1953;51.222;6.624;2023-07-22T11:40:17;23.80;1.00
3876;DHT22;1953;51.222;6.624;2023-07-22T11:44:59;24.20;1.00
3876;DHT22;1953;51.222;6.624;2023-07-22T11:49:47;24.00;1.00
3876;DHT22;1953;51.222;6.624;2023-07-22T11:54:31;24.30;1.00
3876;DHT22;1953;51.222;6.624;2023-07-22T11:59:13;24.60;1.00
3876;DHT22;1953;51.222;6.624;2023-07-22T12:03:56;24.60;1.00
3876;DHT22;1953;51.222;6.624;2023-07-22T12:08:45;24.70;1.00
3876;DHT22;1953;51.222;6.624;2023-07-22T12:16:24;24.70;1.00
3876;DHT22;1953;51.222;6.624;2023-07-22T12:21:06;24.80;1.00
3876;DHT22;1953;51.222;6.624;2023-07-22T12:25:50;25.20;1.00
3876;DHT22;1953;51.222;6.624;2023-07-22T12:30:32;25.40;1.00
3876;DHT22;1953;51.222;6.624;2023-07-22T12:35:16;25.40;1.00
3876;DHT22;1953;51.222;6.624;2023-07-22T12:39:59;25.50;1.00
3876;DHT22;1953;51.222;6.624;2023-07-22T12:44:41;27.00;1.00
3876;DHT22;1953;51.222;6.624;2023-07-22T12:49:23;26.60;1.00
3876;DHT22;1953;51.222;6.624;2023-07-22T12:54:08;26.30;1.00
3876;DHT22;1953;51.222;6.624;2023-07-22T12:58:50;26.70;1.00
3876;DHT22;1953;51.222;6.624;2023-07-22T13:03:33;26.90;1.00
3876;DHT22;1953;51.222;6.624;2023-07-22T13:08:15;27.30;1.00
3876;DHT22;1953;51.222;6.624;2023-07-22T13:12:59;27.60;1.00
3876;DHT22;1953;51.222;6.624;2023-07-22T13:17:42;28.60;1.00
3876;DHT22;1953;51.222;6.624;2023-07-22T13:22:24;28.40;1.00
3876;DHT22;1953;51.222;6.624;2023-07-22T13:27:07;27.80;1.00
3876;DHT22;1953;51.222;6.624;2023-07-22T13:31:51;28.10;1.00
3876;DHT22;1953;51.222;6.624;2023-07-22T13:36:33;28.50;1.00
3876;DHT22;1953;51.222;6.624;2023-07-22T13:41:16;28.20;1.00
3876;DHT22;1953;51.222;6.624;2023-07-22T13:45:58;28.10;1.00
3876;DHT22;1953;51.222;6.624;2023-07-22T13:50:42;27.90;1.00
3876;DHT22;1953;51.222;6.624;2023-07-22T13:55:25;27.80;1.00
3876;DHT22;1953;51.222;6.624;2023-07-22T14:00:08;28.00;1.00
3876;DHT22;1953;51.222;6.624;2023-07-22T14:04:51;28.40;1.00
3876;DHT22;1953;51.222;6.624;2023-07-22T14:09:35;29.00;1.00
3876;DHT22;1953;51.222;6.624;2023-07-22T14:14:17;29.10;1.00
3876;DHT22;1953;51.222;6.624;2023-07-22T14:19:01;29.60;1.00
3876;DHT22;1953;51.222;6.624;2023-07-22T14:23:43;30.10;1.00
3876;DHT22;1953;51.222;6.624;2023-07-22T14:28:27;30.90;1.00
3876;DHT22;1953;51.222;6.624;2023-07-22T14:33:10;30.80;1.00
3876;DHT22;1953;51.222;6.624;2023-07-22T14:37:52;29.10;1.00
3876;DHT22;1953;51.222;6.624;2023-07-22T14:42:35;28.60;1.00
3876;DHT22;1953;51.222;6.624;2023-07-22T14:47:19;28.70;1.00
3876;DHT22;1953;51.222;6.624;2023-07-22T14:52:01;29.30;1.00
3876;DHT22;1953;51.222;6.624;2023-07-22T14:56:44;28.70;1.00
3876;DHT22;1953;51.222;6.624;2023-07-22T15:01:26;28.70;1.00
3876;DHT22;1953;51.222;6.624;2023-07-22T15:06:10;28.50;1.00
3876;DHT22;1953;51.222;6.624;2023-07-22T15:10:53;28.20;1.00
3876;DHT22;1953;51.222;6.624;2023-07-22T15:15:35;28.00;1.00
3876;DHT22;1953;51.222;6.624;2023-07-22T15:20:18;27.60;1.00
3876;DHT22;1953;51.222;6.624;2023-07-22T15:25:03;27.10;1.00
3876;DHT22;1953;51.222;6.624;2023-07-22T15:29:46;27.40;1.00
3876;DHT22;1953;51.222;6.624;2023-07-22T15:34:28;26.80;1.00
3876;DHT22;1953;51.222;6.624;2023-07-22T15:39:11;26.20;1.00
3876;DHT22;1953;51.222;6.624;2023-07-22T15:43:55;26.00;1.00
3876;DHT22;1953;51.222;6.624;2023-07-22T15:48:37;26.00;1.00
3876;DHT22;1953;51.222;6.624;2023-07-22T15:53:20;26.00;1.00
3876;DHT22;1953;51.222;6.624;2023-07-22T15:58:02;26.40;1.00
3876;DHT22;1953;51.222;6.624;2023-07-22T16:02:46;27.00;1.00
3876;DHT22;1953;51.222;6.624;2023-07-22T16:07:29;26.80;1.00
3876;DHT22;1953;51.222;6.624;2023-07-22T16:12:11;26.80;1.00
3876;DHT22;1953;51.222;6.624;2023-07-22T16:16:54;26.40;1.00
3876;DHT22;1953;51.222;6.624;2023-07-22T16:21:37;26.30;1.00
3876;DHT22;1953;51.222;6.624;2023-07-22T16:26:20;26.00;1.00
3876;DHT22;1953;51.222;6.624;2023-07-22T16:31:02;26.00;1.00
3876;DHT22;1953;51.222;6.624;2023-07-22T16:35:45;25.80;1.00
3876;DHT22;1953;51.222;6.624;2023-07-22T16:40:29;25.70;1.00
3876;DHT22;1953;51.222;6.624;2023-07-22T16:45:11;25.60;1.00
3876;DHT22;1953;51.222;6.624;2023-07-22T16:49:54;25.70;1.00
3876;DHT22;1953;51.222;6.624;2023-07-22T16:54:37;25.60;1.00
3876;DHT22;1953;51.222;6.624;2023-07-22T16:59:21;25.40;1.00
3876;DHT22;1953;51.222;6.624;2023-07-22T17:04:03;25.00;1.00
3876;DHT22;1953;51.222;6.624;2023-07-22T17:08:46;24.90;1.00
3876;DHT22;1953;51.222;6.624;2023-07-22T17:13:29;24.90;1.00
3876;DHT22;1953;51.222;6.624;2023-07-22T17:18:13;24.80;1.00
3876;DHT22;1953;51.222;6.624;2023-07-22T17:22:55;24.60;1.00
3876;DHT22;1953;51.222;6.624;2023-07-22T17:27:37;24.40;1.00
3876;DHT22;1953;51.222;6.624;2023-07-22T17:32:20;24.40;1.00
3876;DHT22;1953;51.222;6.624;2023-07-22T17:37:04;24.40;1.00
3876;DHT22;1953;51.222;6.624;2023-07-22T17:41:46;24.30;1.00
3876;DHT22;1953;51.222;6.624;2023-07-22T17:46:29;24.30;1.00
3876;DHT22;1953;51.222;6.624;2023-07-22T17:51:12;24.20;1.00
3876;DHT22;1953;51.222;6.624;2023-07-22T17:55:55;24.10;1.00
3876;DHT22;1953;51.222;6.624;2023-07-22T18:00:38;24.00;1.00
3876;DHT22;1953;51.222;6.624;2023-07-22T18:05:20;23.80;1.00
3876;DHT22;1953;51.222;6.624;2023-07-22T18:10:06;23.60;1.00
3876;DHT22;1953;51.222;6.624;2023-07-22T18:14:51;23.40;1.00
3876;DHT22;1953;51.222;6.624;2023-07-22T18:19:33;23.40;1.00
3876;DHT22;1953;51.222;6.624;2023-07-22T18:24:15;23.30;1.00
3876;DHT22;1953;51.222;6.624;2023-07-22T18:28:58;23.30;1.00
3876;DHT22;1953;51.222;6.624;2023-07-22T18:33:42;23.40;1.00
3876;DHT22;1953;51.222;6.624;2023-07-22T18:38:24;23.30;1.00
3876;DHT22;1953;51.222;6.624;2023-07-22T18:43:08;23.20;1.00
3876;DHT22;1953;51.222;6.624;2023-07-22T18:47:50;23.20;1.00
3876;DHT22;1953;51.222;6.624;2023-07-22T18:52:34;23.20;1.00
3876;DHT22;1953;51.222;6.624;2023-07-22T18:57:16;23.10;1.00
3876;DHT22;1953;51.222;6.624;2023-07-22T19:01:59;23.00;1.00
3876;DHT22;1953;51.222;6.624;2023-07-22T19:06:41;23.00;1.00
3876;DHT22;1953;51.222;6.624;2023-07-22T19:11:25;22.90;1.00
3876;DHT22;1953;51.222;6.624;2023-07-22T19:16:08;22.90;1.00
3876;DHT22;1953;51.222;6.624;2023-07-22T19:20:58;22.80;1.00
3876;DHT22;1953;51.222;6.624;2023-07-22T19:25:40;22.80;1.00
3876;DHT22;1953;51.222;6.624;2023-07-22T19:30:24;22.70;1.00
3876;DHT22;1953;51.222;6.624;2023-07-22T19:35:07;22.80;1.00
3876;DHT22;1953;51.222;6.624;2023-07-22T19:39:49;22.80;1.00
3876;DHT22;1953;51.222;6.624;2023-07-22T19:44:33;22.80;1.00
3876;DHT22;1953;51.222;6.624;2023-07-22T19:49:17;22.70;1.00
3876;DHT22;1953;51.222;6.624;2023-07-22T19:53:59;22.70;1.00
3876;DHT22;1953;51.222;6.624;2023-07-22T19:58:42;22.70;1.00
3876;DHT22;1953;51.222;6.624;2023-07-22T20:03:24;22.70;1.00
3876;DHT22;1953;51.222;6.624;2023-07-22T20:08:08;22.70;1.00
3876;DHT22;1953;51.222;6.624;2023-07-22T20:12:51;22.70;1.00
3876;DHT22;1953;51.222;6.624;2023-07-22T20:17:33;22.80;1.00
3876;DHT22;1953;51.222;6.624;2023-07-22T20:22:16;22.80;1.00
3876;DHT22;1953;51.222;6.624;2023-07-22T20:26:59;22.80;1.00
3876;DHT22;1953;51.222;6.624;2023-07-22T20:31:42;22.90;1.00
3876;DHT22;1953;51.222;6.624;2023-07-22T20:36:24;22.90;1.00
3876;DHT22;1953;51.222;6.624;2023-07-22T20:41:07;22.80;1.00
3876;DHT22;1953;51.222;6.624;2023-07-22T20:45:50;22.80;1.00
3876;DHT22;1953;51.222;6.624;2023-07-22T20:50:33;22.70;1.00
3876;DHT22;1953;51.222;6.624;2023-07-22T20:55:15;22.70;1.00
3876;DHT22;1953;51.222;6.624;2023-07-22T20:59:58;22.60;1.00
3876;DHT22;1953;51.222;6.624;2023-07-22T21:04:42;22.50;1.00
3876;DHT22;1953;51.222;6.624;2023-07-22T21:09:25;22.60;1.00
3876;DHT22;1953;51.222;6.624;2023-07-22T21:14:07;22.60;1.00
3876;DHT22;1953;51.222;6.624;2023-07-22T21:18:50;22.50;1.00
3876;DHT22;1953;51.222;6.624;2023-07-22T21:23:33;22.40;1.00
3876;DHT22;1953;51.222;6.624;2023-07-22T21:28:16;22.30;1.00
3876;DHT22;1953;51.222;6.624;2023-07-22T21:32:58;22.30;1.00
3876;DHT22;1953;51.222;6.624;2023-07-22T21:37:41;22.20;1.00
3876;DHT22;1953;51.222;6.624;2023-07-22T21:42:25;22.10;1.00
3876;DHT22;1953;51.222;6.624;2023-07-22T21:47:08;22.00;1.00
3876;DHT22;1953;51.222;6.624;2023-07-22T21:51:50;22.00;1.00
3876;DHT22;1953;51.222;6.624;2023-07-22T21:56:33;22.00;1.00
3876;DHT22;1953;51.222;6.624;2023-07-22T22:01:16;22.00;1.00
3876;DHT22;1953;51.222;6.624;2023-07-22T22:05:59;22.00;1.00
3876;DHT22;1953;51.222;6.624;2023-07-22T22:10:41;21.90;1.00
3876;DHT22;1953;51.222;6.624;2023-07-22T22:15:27;21.90;1.00
3876;DHT22;1953;51.222;6.624;2023-07-22T22:20:11;21.80;1.00
3876;DHT22;1953;51.222;6.624;2023-07-22T22:24:54;22.40;1.00
3876;DHT22;1953;51.222;6.624;2023-07-22T22:29:36;21.60;1.00
3876;DHT22;1953;51.222;6.624;2023-07-22T22:34:19;21.60;1.00
3876;DHT22;1953;51.222;6.624;2023-07-22T22:39:03;21.50;1.00
3876;DHT22;1953;51.222;6.624;2023-07-22T22:43:45;21.50;1.00
3876;DHT22;1953;51.222;6.624;2023-07-22T22:48:28;21.40;1.00
3876;DHT22;1953;51.222;6.624;2023-07-22T22:53:10;21.30;1.00
3876;DHT22;1953;51.222;6.624;2023-07-22T22:57:54;21.30;1.00
3876;DHT22;1953;51.222;6.624;2023-07-22T23:02:37;21.20;1.00
3876;DHT22;1953;51.222;6.624;2023-07-22T23:07:19;21.10;1.00
3876;DHT22;1953;51.222;6.624;2023-07-22T23:12:02;21.10;1.00
3876;DHT22;1953;51.222;6.624;2023-07-22T23:16:46;21.00;1.00
3876;DHT22;1953;51.222;6.624;2023-07-22T23:21:29;21.00;1.00
3876;DHT22;1953;51.222;6.624;2023-07-22T23:26:11;21.10;1.00
3876;DHT22;1953;51.222;6.624;2023-07-22T23:30:54;21.00;1.00
3876;DHT22;1953;51.222;6.624;2023-07-22T23:35:38;20.90;1.00
3876;DHT22;1953;51.222;6.624;2023-07-22T23:40:21;20.80;1.00
3876;DHT22;1953;51.222;6.624;2023-07-22T23:45:04;20.80;1.00
3876;DHT22;1953;51.222;6.624;2023-07-22T23:49:46;20.80;1.00
3876;DHT22;1953;51.222;6.624;2023-07-22T23:54:30;20.80;1.00
3876;DHT22;1953;51.222;6.624;2023-07-22T23:59:13;20.60;1.00
